nws-alerts: Checking more than four warning/county codes can delay the loading of your pages. You should use a cron job to get the data.

Nearby METAR Reports

 

KOXC - Oxford/Waterbury, Connecticut, USA
Distance from station: NW 7mi, 11km
Updated: 09/24/2021 4:51am
Overcast
Overcast
 Wind from W
Wind: W 5 mph , 7 km/h
Temperature: 63°F , 17°C
Dew Point: 61°F , 16°C
Humidity: 94%
Barometer: 30.00 inHg , 1015.9 hPa
Clouds: Overcast
Visibility: 10 miles , 16 km
Cloud details: Mostly cloudy 300 ft
Mostly cloudy 1800 ft
Overcast 3000 ft
2021/09/24 08:51 KOXC 240851Z AUTO 27004KT 10SM BKN003 BKN018 OVC030 17/16 A3000 RMK AO2 RAE43 SLP165 P0012 60052 T01670161 53003
KHVN - New Haven/Tweed, Connecticut, USA
Distance from station: SE 13mi, 20km
Updated: 09/24/2021 4:53am
Light rain, Mist, Overcast
Light rain, Mist, Overcast
 Wind from calm
Wind: Calm
Temperature: 68°F , 20°C
Dew Point: 66°F , 19°C
Humidity: 94%
Barometer: 29.96 inHg , 1014.6 hPa
Summary: Light rain, Mist
Clouds: Overcast
Visibility: 6 miles , 10 km
Cloud details: Partly cloudy 2300 ft
Mostly cloudy 2900 ft
Overcast 6000 ft
2021/09/24 08:53 KHVN 240853Z AUTO 00000KT 6SM -RA BR SCT023 BKN029 OVC060 20/19 A2996 RMK AO2 TSE10 SLP145 P0006 60113 T02000189 53002
 
KMMK - Meriden, Connecticut, USA
Distance from station: NE 13mi, 21km
Updated: 09/24/2021 4:53am
Light rain, Overcast
Light rain, Overcast
 Wind from WNW
Wind: WNW 3 mph , 6 km/h
Temperature: 66°F , 19°C
Dew Point: 63°F , 17°C
Humidity: 88%
Barometer: 29.96 inHg , 1014.6 hPa
Summary: Light rain
Clouds: Overcast
Visibility: 9 miles , 14 km
Cloud details: Few Clouds 600 ft
Mostly cloudy 1100 ft
Overcast 1400 ft
2021/09/24 08:53 KMMK 240853Z AUTO 29003KT 9SM -RA FEW006 BKN011 OVC014 19/17 A2996 RMK AO2 SLP145 P0009 60135 T01940172 53006
KBDR - Bridgeport, Connecticut, USA
Distance from station: SSW 17mi, 27km
Updated: 09/24/2021 4:52am
Overcast
Overcast
 Wind from W
Wind: W 5 mph , 7 km/h
Temperature: 64°F , 18°C
Dew Point: 63°F , 17°C
Humidity: 94%
Barometer: 29.97 inHg , 1014.9 hPa
Clouds: Overcast
Visibility: 10 miles , 16 km
Cloud details: Mostly cloudy 2900 ft
Mostly cloudy 4200 ft
Overcast 5500 ft
2021/09/24 08:52 KBDR 240852Z AUTO 28004KT 10SM BKN029 BKN042 OVC055 18/17 A2997 RMK AO2 RAE26 SLP149 P0006 60037 T01830172 53006
 
KDXR - Danbury, Connecticut, USA
Distance from station: W 23mi, 38km
Updated: 09/24/2021 4:53am
Rain, Mist, Overcast
Rain, Mist, Overcast
 Wind from WSW
Wind: WSW 8 mph , 13 km/h
Temperature: 61°F , 16°C
Dew Point: 57°F , 14°C
Humidity: 88%
Barometer: 30.02 inHg , 1016.6 hPa
Summary: Rain, Mist
Clouds: Overcast
Visibility: 5 miles , 8 km
Cloud details: Overcast 700 ft
2021/09/24 08:53 KDXR 240853Z AUTO 24007KT 5SM RA BR OVC007 16/14 A3002 RMK AO2 RAE17B35 CIG 004V009 SLP161 P0003 60104 T01610144 53005